createdAt,value
2018-04-26T00:02:19.799Z,10.93
2018-04-26T00:04:47.386Z,11.20
2018-04-26T00:07:14.945Z,10.03
2018-04-26T00:09:42.516Z,13.73
2018-04-26T00:12:10.846Z,11.40
2018-04-26T00:14:39.231Z,15.23
2018-04-26T00:17:06.825Z,12.70
2018-04-26T00:19:34.433Z,16.90
2018-04-26T00:22:02.043Z,14.17
2018-04-26T00:24:29.641Z,17.77
2018-04-26T00:26:58.037Z,17.30
2018-04-26T00:29:25.680Z,15.07
2018-04-26T00:31:53.974Z,13.13
2018-04-26T00:34:22.313Z,13.43
2018-04-26T00:36:49.884Z,14.50
2018-04-26T00:39:17.519Z,11.50
2018-04-26T00:41:45.104Z,14.93
2018-04-26T00:44:12.676Z,13.40
2018-04-26T00:46:40.344Z,11.73
2018-04-26T00:49:07.902Z,13.83
2018-04-26T00:51:47.358Z,15.50
2018-04-26T00:54:14.928Z,13.97
2018-04-26T00:56:42.527Z,15.30
2018-04-26T00:59:10.131Z,18.40
2018-04-26T01:01:37.715Z,15.13
2018-04-26T01:04:05.321Z,15.63
2018-04-26T01:06:32.899Z,16.63
2018-04-26T01:09:00.478Z,22.10
2018-04-26T01:11:28.063Z,18.47
2018-04-26T01:13:55.889Z,16.83
2018-04-26T01:16:23.486Z,18.80
2018-04-26T01:18:51.070Z,14.80
2018-04-26T01:21:18.690Z,14.73
2018-04-26T01:23:46.274Z,17.10
2018-04-26T01:26:13.886Z,17.93
2018-04-26T01:28:41.454Z,19.70
2018-04-26T01:31:09.060Z,16.87
2018-04-26T01:33:36.637Z,14.33
2018-04-26T01:36:04.238Z,21.17
2018-04-26T01:38:31.836Z,21.33
2018-04-26T01:40:59.435Z,16.57
2018-04-26T01:43:27.008Z,19.20
2018-04-26T01:45:54.585Z,21.63
2018-04-26T01:48:22.180Z,18.70
2018-04-26T01:50:50.517Z,21.60
2018-04-26T01:53:18.091Z,15.17
2018-04-26T01:55:45.717Z,17.83
2018-04-26T01:58:13.416Z,21.70
2018-04-26T02:00:40.982Z,19.83
2018-04-26T02:03:08.532Z,23.57
2018-04-26T02:05:36.106Z,16.13
2018-04-26T02:08:03.688Z,17.10
2018-04-26T02:10:31.272Z,21.30
2018-04-26T02:12:59.547Z,18.13
2018-04-26T02:15:27.199Z,21.97
2018-04-26T02:17:54.830Z,20.63
2018-04-26T02:20:22.417Z,20.23
2018-04-26T02:22:50.749Z,21.70
2018-04-26T02:25:19.148Z,13.57
2018-04-26T02:27:46.741Z,8.27
2018-04-26T02:30:15.059Z,9.67
2018-04-26T02:32:42.631Z,9.23
2018-04-26T02:35:10.219Z,11.50
2018-04-26T02:37:37.777Z,7.43
2018-04-26T02:40:06.134Z,7.17
2018-04-26T02:42:33.720Z,6.03
2018-04-26T02:45:02.100Z,9.70
2018-04-26T02:47:30.459Z,10.33
2018-04-26T02:49:58.064Z,9.30
2018-04-26T02:52:25.669Z,13.27
2018-04-26T02:54:53.269Z,13.13
2018-04-26T02:57:20.917Z,15.57
2018-04-26T02:59:48.510Z,17.40
2018-04-26T03:02:16.105Z,13.07
2018-04-26T03:04:44.292Z,13.57
2018-04-26T03:07:11.864Z,16.37
2018-04-26T03:09:39.455Z,15.40
2018-04-26T03:12:07.063Z,17.77
2018-04-26T03:14:34.620Z,19.93
2018-04-26T03:17:03.003Z,20.77
2018-04-26T03:19:31.342Z,19.53
2018-04-26T03:21:58.927Z,20.57
2018-04-26T03:24:26.493Z,20.90
2018-04-26T03:26:54.046Z,26.70
2018-04-26T03:29:21.629Z,22.43
2018-04-26T03:31:50.929Z,21.77
2018-04-26T03:34:19.315Z,21.03
2018-04-26T03:36:46.916Z,19.30
2018-04-26T03:39:14.508Z,19.47
2018-04-26T03:41:42.093Z,20.77
2018-04-26T03:44:09.679Z,19.47
2018-04-26T03:46:37.265Z,21.53
2018-04-26T03:49:04.842Z,20.70
2018-04-26T03:51:32.444Z,23.47
2018-04-26T03:54:00.017Z,17.77
2018-04-26T03:56:27.608Z,23.63
2018-04-26T03:58:55.200Z,20.37
2018-04-26T04:01:34.652Z,19.87
2018-04-26T04:04:41.063Z,18.90
2018-04-26T04:07:08.765Z,22.33
2018-04-26T04:09:36.367Z,12.90
2018-04-26T04:12:03.929Z,10.13
2018-04-26T04:14:31.501Z,8.57
2018-04-26T04:16:59.083Z,8.20
2018-04-26T04:19:26.683Z,7.80
2018-04-26T04:21:54.260Z,8.33
2018-04-26T04:24:21.844Z,7.27
2018-04-26T04:26:49.449Z,6.57
2018-04-26T04:29:17.798Z,4.90
2018-04-26T04:31:45.369Z,4.30
2018-04-26T04:34:12.957Z,2.83
2018-04-26T04:36:41.300Z,4.27
2018-04-26T04:39:08.900Z,2.60
2018-04-26T04:41:37.259Z,4.43
2018-04-26T04:44:04.848Z,4.80
2018-04-26T04:46:32.478Z,5.13
2018-04-26T04:49:00.059Z,5.70
2018-04-26T04:51:27.653Z,5.77
2018-04-26T04:53:55.297Z,6.83
2018-04-26T04:56:22.872Z,5.13
2018-04-26T04:58:50.440Z,5.43
2018-04-26T05:01:18.038Z,6.17
2018-04-26T05:03:45.622Z,7.00
2018-04-26T05:06:13.216Z,5.10
2018-04-26T05:08:40.902Z,6.33
2018-04-26T05:11:08.495Z,6.10
2018-04-26T05:13:36.081Z,5.07
2018-04-26T05:16:03.716Z,6.40
2018-04-26T05:18:32.051Z,5.77
2018-04-26T05:20:59.632Z,5.97
2018-04-26T05:23:27.335Z,5.20
2018-04-26T05:25:54.919Z,5.67
2018-04-26T05:28:22.522Z,7.70
2018-04-26T05:30:50.108Z,8.47
2018-04-26T05:33:17.693Z,8.70
2018-04-26T05:35:45.264Z,6.87
2018-04-26T05:38:13.808Z,5.53
2018-04-26T05:40:41.409Z,7.97
2018-04-26T05:43:09.761Z,8.20
2018-04-26T05:45:37.347Z,11.57
2018-04-26T05:48:05.707Z,11.90
2018-04-26T05:50:33.307Z,9.70
2018-04-26T05:53:00.901Z,15.67
2018-04-26T05:55:28.546Z,9.70
2018-04-26T05:57:56.131Z,13.10
2018-04-26T06:00:23.735Z,13.23
2018-04-26T06:02:51.348Z,13.23
2018-04-26T06:05:18.905Z,12.03
2018-04-26T06:07:46.489Z,16.20
2018-04-26T06:10:14.063Z,10.30
2018-04-26T06:12:41.632Z,14.63
2018-04-26T06:15:09.210Z,13.40
2018-04-26T06:17:37.092Z,12.10
2018-04-26T06:20:04.719Z,14.80
2018-04-26T06:22:32.318Z,12.63
2018-04-26T06:24:59.900Z,12.63
2018-04-26T06:27:27.489Z,12.20
2018-04-26T06:29:55.847Z,8.43
2018-04-26T06:32:23.419Z,13.40
2018-04-26T06:34:51.756Z,11.40
2018-04-26T06:37:19.343Z,10.10
2018-04-26T06:39:46.966Z,12.07
2018-04-26T06:42:14.576Z,10.60
2018-04-26T06:44:42.183Z,12.63
2018-04-26T06:47:09.873Z,14.20
2018-04-26T06:49:37.455Z,14.00
2018-04-26T06:52:05.084Z,14.00
2018-04-26T06:54:33.437Z,14.23
2018-04-26T06:57:01.028Z,16.23
2018-04-26T06:59:29.434Z,15.67
2018-04-26T07:01:57.065Z,12.70
2018-04-26T07:04:24.633Z,15.20
2018-04-26T07:06:52.969Z,17.47
2018-04-26T07:09:20.745Z,17.13
2018-04-26T07:11:48.358Z,13.07
2018-04-26T07:14:15.954Z,16.00
2018-04-26T07:16:43.633Z,15.93
2018-04-26T07:19:11.225Z,16.47
2018-04-26T07:21:38.861Z,15.37
2018-04-26T07:24:06.495Z,17.43
2018-04-26T07:26:34.189Z,16.97
2018-04-26T07:29:01.799Z,17.67
2018-04-26T07:31:29.372Z,16.27
2018-04-26T07:33:56.986Z,15.97
2018-04-26T07:36:24.591Z,18.90
2018-04-26T07:38:52.970Z,14.70
2018-04-26T07:41:20.566Z,10.67
2018-04-26T07:43:49.774Z,13.57
2018-04-26T07:46:17.402Z,14.77
2018-04-26T07:48:45.014Z,9.73
2018-04-26T07:51:12.640Z,9.13
2018-04-26T07:53:41.116Z,14.40
2018-04-26T07:56:08.952Z,10.33
2018-04-26T07:58:36.556Z,10.43
2018-04-26T08:01:04.307Z,14.20
2018-04-26T08:03:31.924Z,12.70
2018-04-26T08:06:00.283Z,13.83
2018-04-26T08:08:27.886Z,14.07
2018-04-26T08:10:55.564Z,15.20
2018-04-26T08:13:23.159Z,11.33
2018-04-26T08:15:50.758Z,8.77
2018-04-26T08:18:19.124Z,11.40
2018-04-26T08:20:46.725Z,14.83
2018-04-26T08:23:14.313Z,12.90
2018-04-26T08:25:41.904Z,18.53
2018-04-26T08:28:09.493Z,13.10
2018-04-26T08:30:37.077Z,14.20
2018-04-26T08:33:05.432Z,7.50
2018-04-26T08:35:32.989Z,9.67
2018-04-26T08:38:00.590Z,12.73
2018-04-26T08:40:28.196Z,8.67
2018-04-26T08:42:55.981Z,8.47
2018-04-26T08:45:23.628Z,11.57
2018-04-26T08:47:51.224Z,10.13
2018-04-26T08:50:18.808Z,12.40
2018-04-26T08:52:47.183Z,11.47
2018-04-26T08:55:15.578Z,17.73
2018-04-26T08:57:43.197Z,11.10
2018-04-26T09:00:10.801Z,12.37
2018-04-26T09:02:38.398Z,14.10
2018-04-26T09:05:05.977Z,11.87
2018-04-26T09:07:33.573Z,12.13
2018-04-26T09:10:01.159Z,12.00
2018-04-26T09:12:28.774Z,11.60
2018-04-26T09:14:56.361Z,14.03
2018-04-26T09:17:23.945Z,14.47
2018-04-26T09:19:52.361Z,12.13
2018-04-26T09:22:20.724Z,15.63
2018-04-26T09:24:48.315Z,15.83
2018-04-26T09:27:15.901Z,19.87
2018-04-26T09:29:43.482Z,17.73
2018-04-26T09:32:11.056Z,13.67
2018-04-26T09:34:38.660Z,17.37
2018-04-26T09:37:07.027Z,13.40
2018-04-26T09:39:34.662Z,12.63
2018-04-26T09:42:02.250Z,13.93
2018-04-26T09:44:29.837Z,10.97
2018-04-26T09:46:58.257Z,13.93
2018-04-26T09:49:25.854Z,10.57
2018-04-26T09:51:53.449Z,10.97
2018-04-26T09:54:21.821Z,9.73
2018-04-26T09:56:49.429Z,11.00
2018-04-26T09:59:17.114Z,9.30
2018-04-26T10:01:44.804Z,11.43
2018-04-26T10:04:14.995Z,7.47
2018-04-26T10:06:48.295Z,12.27
2018-04-26T10:09:15.893Z,10.63
2018-04-26T10:11:43.488Z,9.43
2018-04-26T10:14:11.841Z,10.60
2018-04-26T10:16:39.431Z,9.97
2018-04-26T10:19:10.424Z,10.70
2018-04-26T10:21:38.021Z,10.67
2018-04-26T10:24:05.727Z,9.90
2018-04-26T10:26:33.360Z,4.70
2018-04-26T10:29:00.967Z,3.47
2018-04-26T10:31:28.579Z,5.27
2018-04-26T10:33:56.174Z,6.43
2018-04-26T10:36:23.761Z,8.37
2018-04-26T10:38:51.353Z,4.33
2018-04-26T10:41:18.994Z,6.97
2018-04-26T10:43:46.573Z,7.73
2018-04-26T10:46:14.211Z,6.67
2018-04-26T10:48:41.847Z,7.60
2018-04-26T10:51:09.503Z,7.73
2018-04-26T10:53:37.116Z,5.43
2018-04-26T10:56:04.714Z,4.17
2018-04-26T10:58:32.289Z,5.00
2018-04-26T11:00:59.871Z,5.67
2018-04-26T11:03:27.486Z,6.93
2018-04-26T11:05:55.060Z,6.70
2018-04-26T11:08:22.642Z,5.83
2018-04-26T11:10:50.199Z,7.23
2018-04-26T11:13:17.794Z,5.40
2018-04-26T11:15:45.398Z,6.40
2018-04-26T11:18:13.734Z,7.73
2018-04-26T11:20:41.574Z,7.13
2018-04-26T11:23:09.187Z,8.33
2018-04-26T11:25:37.567Z,8.70
2018-04-26T11:28:06.220Z,9.43
2018-04-26T11:30:33.917Z,10.97
2018-04-26T11:33:01.537Z,10.60
2018-04-26T11:35:29.131Z,11.63
2018-04-26T11:37:56.744Z,9.60
2018-04-26T11:40:24.345Z,14.70
2018-04-26T11:42:51.909Z,12.13
2018-04-26T11:45:19.526Z,9.67
2018-04-26T11:47:47.900Z,8.57
2018-04-26T11:50:15.474Z,4.97
2018-04-26T11:52:43.052Z,3.60
2018-04-26T11:55:11.407Z,3.23
2018-04-26T11:57:39.013Z,7.80
2018-04-26T12:00:06.594Z,4.60
2018-04-26T12:02:34.287Z,3.70
2018-04-26T12:05:01.870Z,7.00
2018-04-26T12:07:29.454Z,7.00
2018-04-26T12:09:57.807Z,6.20
2018-04-26T12:12:25.396Z,5.40
2018-04-26T12:14:53.000Z,6.90
2018-04-26T12:17:20.600Z,5.50
2018-04-26T12:19:48.227Z,7.70
2018-04-26T12:22:15.809Z,8.63
2018-04-26T12:24:43.372Z,9.47
2018-04-26T12:27:10.939Z,7.47
2018-04-26T12:29:38.529Z,6.03
2018-04-26T12:32:06.131Z,9.50
2018-04-26T12:34:33.709Z,9.30
2018-04-26T12:37:01.370Z,6.97
2018-04-26T12:39:28.979Z,8.60
2018-04-26T12:41:56.646Z,6.80
2018-04-26T12:44:24.249Z,7.60
2018-04-26T12:46:51.847Z,6.00
2018-04-26T12:49:19.444Z,8.03
2018-04-26T12:51:47.024Z,10.30
2018-04-26T12:54:14.668Z,8.63
2018-04-26T12:56:42.293Z,8.70
2018-04-26T12:59:09.904Z,7.83
2018-04-26T13:01:37.502Z,4.67
2018-04-26T13:04:05.862Z,6.50
2018-04-26T13:06:33.488Z,6.37
2018-04-26T13:09:01.070Z,7.63
2018-04-26T13:11:28.678Z,5.73
2018-04-26T13:13:57.033Z,5.20
2018-04-26T13:16:24.630Z,6.93
2018-04-26T13:18:52.991Z,5.50
2018-04-26T13:21:20.705Z,7.30
2018-04-26T13:23:48.205Z,5.37
2018-04-26T13:26:15.823Z,8.97
2018-04-26T13:28:43.418Z,10.80
2018-04-26T13:31:11.018Z,4.30
2018-04-26T13:33:38.639Z,8.80
2018-04-26T13:36:06.226Z,5.63
2018-04-26T13:38:33.862Z,7.27
2018-04-26T13:41:01.486Z,6.77
2018-04-26T13:43:29.091Z,9.07
2018-04-26T13:45:56.740Z,12.20
2018-04-26T13:48:25.084Z,5.93
2018-04-26T13:50:53.145Z,5.63
2018-04-26T13:53:20.771Z,8.73
2018-04-26T13:55:49.177Z,10.37
2018-04-26T13:58:16.775Z,7.37
2018-04-26T14:00:44.406Z,8.37
2018-04-26T14:03:11.982Z,6.27
2018-04-26T14:05:39.577Z,6.93
2018-04-26T14:08:07.153Z,5.53
2018-04-26T14:10:34.713Z,6.27
2018-04-26T14:13:02.278Z,7.60
2018-04-26T14:15:29.866Z,6.33
2018-04-26T14:17:58.272Z,7.90
2018-04-26T14:20:25.914Z,6.07
2018-04-26T14:22:53.600Z,9.63
2018-04-26T14:25:21.966Z,5.67
2018-04-26T14:27:49.585Z,5.13
2018-04-26T14:30:17.165Z,8.73
2018-04-26T14:32:44.794Z,7.47
2018-04-26T14:35:12.401Z,5.33
2018-04-26T14:37:40.033Z,7.23
2018-04-26T14:40:08.415Z,7.77
2018-04-26T14:42:36.041Z,6.20
2018-04-26T14:45:04.421Z,5.57
2018-04-26T14:47:32.777Z,6.27
2018-04-26T14:50:00.391Z,7.67
2018-04-26T14:52:28.000Z,4.13
2018-04-26T14:54:55.672Z,7.20
2018-04-26T14:57:23.192Z,6.07
2018-04-26T14:59:50.770Z,6.33
2018-04-26T15:02:18.369Z,5.50
2018-04-26T15:04:45.934Z,5.13
2018-04-26T15:07:13.555Z,5.33
2018-04-26T15:09:41.156Z,4.37
2018-04-26T15:12:08.777Z,5.50
2018-04-26T15:14:36.387Z,5.40
2018-04-26T15:17:04.015Z,5.80
2018-04-26T15:19:31.607Z,6.10
2018-04-26T15:21:59.257Z,4.90
2018-04-26T15:24:26.857Z,6.03
2018-04-26T15:26:54.536Z,5.23
2018-04-26T15:29:22.094Z,4.63
2018-04-26T15:31:49.832Z,4.63
2018-04-26T15:34:17.344Z,5.00
2018-04-26T15:36:44.952Z,5.37
2018-04-26T15:39:12.556Z,4.33
2018-04-26T15:41:40.209Z,7.83
2018-04-26T15:44:07.849Z,5.00
2018-04-26T15:46:35.455Z,4.67
2018-04-26T15:49:03.026Z,5.90
2018-04-26T15:51:30.760Z,3.43
2018-04-26T15:54:25.004Z,3.33
2018-04-26T15:57:04.349Z,5.20
2018-04-26T15:59:43.833Z,5.20
2018-04-26T16:02:29.060Z,8.20
2018-04-26T16:05:14.252Z,6.13
2018-04-26T16:07:59.475Z,6.40
2018-04-26T16:10:57.285Z,7.27
2018-04-26T16:13:42.443Z,9.17
2018-04-26T16:16:27.648Z,6.83
2018-04-26T16:22:29.040Z,5.80
2018-04-26T16:25:08.444Z,6.93
2018-04-26T16:27:47.807Z,6.33
2018-04-26T16:30:27.341Z,9.47
2018-04-26T16:33:06.831Z,11.10
2018-04-26T16:35:46.344Z,7.57
2018-04-26T16:38:26.457Z,4.60
2018-04-26T16:40:54.345Z,7.10
2018-04-26T16:43:21.919Z,6.07
2018-04-26T16:45:49.535Z,6.17
2018-04-26T16:48:17.134Z,5.53
2018-04-26T16:50:44.718Z,7.30
2018-04-26T16:53:12.284Z,7.63
2018-04-26T16:55:39.890Z,5.07
2018-04-26T16:58:07.484Z,9.23
2018-04-26T17:00:35.149Z,8.37
2018-04-26T17:03:03.513Z,8.07
2018-04-26T17:05:31.112Z,4.63
2018-04-26T17:07:59.343Z,5.63
2018-04-26T17:10:26.949Z,7.53
2018-04-26T17:12:54.575Z,8.03
2018-04-26T17:15:22.158Z,5.30
2018-04-26T17:17:49.826Z,6.90
2018-04-26T17:20:17.442Z,7.33
2018-04-26T17:22:45.032Z,6.40
2018-04-26T17:25:12.633Z,6.20
2018-04-26T17:27:40.236Z,8.07
2018-04-26T17:30:07.911Z,7.20
2018-04-26T17:32:36.292Z,5.93
2018-04-26T17:35:03.890Z,9.93
2018-04-26T17:37:31.474Z,5.70
2018-04-26T17:39:59.097Z,7.80
2018-04-26T17:42:27.600Z,8.57
2018-04-26T17:44:55.902Z,6.83
2018-04-26T17:47:23.588Z,7.10
2018-04-26T17:49:52.176Z,9.03
2018-04-26T17:52:19.771Z,10.13
2018-04-26T17:54:47.343Z,7.30
2018-04-26T17:57:15.736Z,7.83
2018-04-26T17:59:44.153Z,10.87
2018-04-26T18:02:11.840Z,9.70
2018-04-26T18:04:39.464Z,6.97
2018-04-26T18:07:07.049Z,11.23
2018-04-26T18:09:34.743Z,14.83
2018-04-26T18:12:03.064Z,19.97
2018-04-26T18:14:31.482Z,14.93
2018-04-26T18:16:59.079Z,8.70
2018-04-26T18:19:26.722Z,13.93
2018-04-26T18:21:54.311Z,10.13
2018-04-26T18:24:21.895Z,8.57
2018-04-26T18:26:49.484Z,9.87
2018-04-26T18:29:17.883Z,14.67
2018-04-26T18:31:45.508Z,12.63
2018-04-26T18:34:13.091Z,12.53
2018-04-26T18:36:41.441Z,10.40
2018-04-26T18:39:09.035Z,11.73
2018-04-26T18:41:37.387Z,14.73
2018-04-26T18:44:04.947Z,16.77
2018-04-26T18:46:32.564Z,15.13
2018-04-26T18:49:00.182Z,14.03
2018-04-26T18:51:27.820Z,13.67
2018-04-26T18:53:55.445Z,9.07
2018-04-26T18:56:23.053Z,19.73
2018-04-26T18:58:50.668Z,11.00
2018-04-26T19:01:19.017Z,12.17
2018-04-26T19:03:46.619Z,11.73
2018-04-26T19:06:14.183Z,12.80
2018-04-26T19:08:42.436Z,11.67
2018-04-26T19:11:10.016Z,8.93
2018-04-26T19:13:37.697Z,10.33
2018-04-26T19:16:06.061Z,10.30
2018-04-26T19:18:33.659Z,9.10
2018-04-26T19:21:02.049Z,7.97
2018-04-26T19:23:30.385Z,14.47
2018-04-26T19:25:57.990Z,8.43
2018-04-26T19:28:26.339Z,15.63
2018-04-26T19:30:54.399Z,10.67
2018-04-26T19:33:21.987Z,10.57
2018-04-26T19:35:50.317Z,12.77
2018-04-26T19:38:17.908Z,6.83
2018-04-26T19:40:45.519Z,7.90
2018-04-26T19:43:13.871Z,10.17
2018-04-26T19:45:41.468Z,8.50
2018-04-26T19:48:09.806Z,10.80
2018-04-26T19:50:37.401Z,10.13
2018-04-26T19:53:05.002Z,9.90
2018-04-26T19:55:32.596Z,10.13
2018-04-26T19:58:00.192Z,11.50
2018-04-26T20:00:27.768Z,11.60
2018-04-26T20:02:55.362Z,9.27
2018-04-26T20:05:22.939Z,11.53
2018-04-26T20:07:50.529Z,11.40
2018-04-26T20:10:18.108Z,11.80
2018-04-26T20:12:45.682Z,8.47
2018-04-26T20:15:13.247Z,9.83
2018-04-26T20:17:40.830Z,7.90
2018-04-26T20:20:09.168Z,10.53
2018-04-26T20:22:36.745Z,5.97
2018-04-26T20:25:04.335Z,7.97
2018-04-26T20:27:31.917Z,12.00
2018-04-26T20:29:59.522Z,11.43
2018-04-26T20:32:27.094Z,9.33
2018-04-26T20:34:54.698Z,11.30
2018-04-26T20:37:22.324Z,7.67
2018-04-26T20:39:49.936Z,10.33
2018-04-26T20:42:18.281Z,9.43
2018-04-26T20:44:48.705Z,6.77
2018-04-26T20:47:16.347Z,10.50
2018-04-26T20:49:44.015Z,10.37
2018-04-26T20:52:11.663Z,9.57
2018-04-26T20:54:39.261Z,6.73
2018-04-26T20:57:06.814Z,8.87
2018-04-26T20:59:34.435Z,7.90
2018-04-26T21:02:02.056Z,9.57
2018-04-26T21:04:29.668Z,8.87
2018-04-26T21:06:58.045Z,12.53
2018-04-26T21:09:25.724Z,9.43
2018-04-26T21:11:53.357Z,13.03
2018-04-26T21:14:20.985Z,13.20
2018-04-26T21:16:48.613Z,12.50
2018-04-26T21:19:16.239Z,12.37
2018-04-26T21:21:43.859Z,10.40
2018-04-26T21:24:12.236Z,9.27
2018-04-26T21:26:39.837Z,12.80
2018-04-26T21:29:07.481Z,9.33
2018-04-26T21:31:35.096Z,10.17
2018-04-26T21:34:02.707Z,8.17
2018-04-26T21:36:31.060Z,9.53
2018-04-26T21:38:58.665Z,10.47
2018-04-26T21:41:26.270Z,11.13
2018-04-26T21:43:54.663Z,11.13
2018-04-26T21:46:22.293Z,11.57
2018-04-26T21:48:49.960Z,9.57
2018-04-26T21:51:23.144Z,10.57
2018-04-26T21:53:56.461Z,9.03
2018-04-26T21:56:29.638Z,10.97
2018-04-26T21:59:02.874Z,10.43
2018-04-26T22:01:36.085Z,12.43
2018-04-26T22:04:22.271Z,9.17
2018-04-26T22:06:49.909Z,10.73
2018-04-26T22:09:17.505Z,10.47
2018-04-26T22:11:45.125Z,15.67
2018-04-26T22:14:12.738Z,12.97
2018-04-26T22:16:40.333Z,14.50
2018-04-26T22:19:07.940Z,10.23
2018-04-26T22:21:35.580Z,10.10
2018-04-26T22:24:03.184Z,10.27
2018-04-26T22:26:30.793Z,10.03
2018-04-26T22:28:58.483Z,9.60
2018-04-26T22:31:26.174Z,10.53
2018-04-26T22:33:53.788Z,12.27
2018-04-26T22:36:21.380Z,10.60
2018-04-26T22:38:48.992Z,9.50
2018-04-26T22:41:17.368Z,10.83
2018-04-26T22:43:44.984Z,10.00
2018-04-26T22:46:12.576Z,10.03
2018-04-26T22:48:40.178Z,8.73
2018-04-26T22:51:07.881Z,9.67
2018-04-26T22:53:35.479Z,9.73
2018-04-26T22:56:03.960Z,12.67
2018-04-26T22:58:31.581Z,9.57
2018-04-26T23:00:59.195Z,9.03
2018-04-26T23:03:26.796Z,10.67
2018-04-26T23:05:55.179Z,9.40
2018-04-26T23:08:22.771Z,10.70
2018-04-26T23:10:50.905Z,8.63
2018-04-26T23:13:18.519Z,10.60
2018-04-26T23:15:46.120Z,12.07
2018-04-26T23:18:13.733Z,12.43
2018-04-26T23:20:42.129Z,10.93
2018-04-26T23:23:09.742Z,12.27
2018-04-26T23:25:37.386Z,10.90
2018-04-26T23:28:04.980Z,11.70
2018-04-26T23:30:33.376Z,8.80
2018-04-26T23:33:00.976Z,10.63
2018-04-26T23:35:28.582Z,12.37
2018-04-26T23:37:56.209Z,13.23
2018-04-26T23:40:24.686Z,10.63
2018-04-26T23:42:52.292Z,9.37
2018-04-26T23:45:19.925Z,13.23
2018-04-26T23:47:47.551Z,10.53
2018-04-26T23:50:15.155Z,10.03
2018-04-26T23:52:42.761Z,13.83
2018-04-26T23:55:10.403Z,12.60
2018-04-26T23:57:38.016Z,12.33
